createdAt,value
2018-07-15T00:01:58.735Z,14.10
2018-07-15T00:04:26.846Z,14.00
2018-07-15T00:06:54.950Z,13.33
2018-07-15T00:09:23.069Z,12.57
2018-07-15T00:11:51.245Z,11.43
2018-07-15T00:14:19.358Z,12.53
2018-07-15T00:16:47.459Z,11.80
2018-07-15T00:19:15.584Z,11.50
2018-07-15T00:21:43.686Z,11.23
2018-07-15T00:24:11.799Z,10.50
2018-07-15T00:26:41.399Z,10.80
2018-07-15T00:29:09.520Z,10.70
2018-07-15T00:31:37.619Z,12.20
2018-07-15T00:34:05.750Z,12.70
2018-07-15T00:36:33.866Z,11.80
2018-07-15T00:39:02.003Z,11.80
2018-07-15T00:41:30.099Z,13.00
2018-07-15T00:43:58.218Z,11.60
2018-07-15T00:46:26.319Z,12.50
2018-07-15T00:48:54.431Z,12.90
2018-07-15T00:51:22.526Z,13.37
2018-07-15T00:53:50.673Z,13.33
2018-07-15T00:56:18.779Z,12.27
2018-07-15T00:58:47.022Z,12.57
2018-07-15T01:01:15.139Z,12.97
2018-07-15T01:03:43.249Z,13.43
2018-07-15T01:06:11.355Z,13.90
2018-07-15T01:08:39.454Z,16.33
2018-07-15T01:11:07.578Z,15.40
2018-07-15T01:13:35.685Z,16.03
2018-07-15T01:16:03.798Z,15.90
2018-07-15T01:18:31.897Z,15.77
2018-07-15T01:21:00.040Z,15.67
2018-07-15T01:23:28.140Z,15.60
2018-07-15T01:25:56.845Z,15.17
2018-07-15T01:28:24.963Z,15.97
2018-07-15T01:30:53.070Z,15.13
2018-07-15T01:33:21.169Z,15.00
2018-07-15T01:35:49.277Z,13.47
2018-07-15T01:38:17.414Z,13.33
2018-07-15T01:40:45.645Z,14.30
2018-07-15T01:43:13.746Z,14.20
2018-07-15T01:45:41.910Z,14.90
2018-07-15T01:48:10.026Z,14.70
2018-07-15T01:50:38.153Z,14.60
2018-07-15T01:53:06.275Z,14.13
2018-07-15T01:55:34.410Z,14.87
2018-07-15T01:58:02.527Z,15.63
2018-07-15T02:00:30.646Z,14.60
2018-07-15T02:02:58.750Z,15.17
2018-07-15T02:05:26.871Z,16.00
2018-07-15T02:07:54.973Z,16.27
2018-07-15T02:10:23.098Z,18.17
2018-07-15T02:12:51.205Z,17.33
2018-07-15T02:15:19.313Z,16.20
2018-07-15T02:17:47.427Z,15.87
2018-07-15T02:20:15.548Z,15.67
2018-07-15T02:22:43.641Z,16.93
2018-07-15T02:25:11.763Z,16.53
2018-07-15T02:27:39.858Z,16.63
2018-07-15T02:30:07.980Z,16.60
2018-07-15T02:32:36.105Z,16.40
2018-07-15T02:35:04.259Z,15.43
2018-07-15T02:37:32.361Z,15.20
2018-07-15T02:40:00.464Z,16.00
2018-07-15T02:42:28.576Z,16.40
2018-07-15T02:44:56.719Z,16.07
2018-07-15T02:47:24.810Z,14.40
2018-07-15T02:49:52.924Z,14.53
2018-07-15T02:54:49.801Z,14.80
2018-07-15T02:57:17.914Z,15.03
2018-07-15T02:59:46.014Z,14.30
2018-07-15T03:02:13.896Z,14.83
2018-07-15T03:04:42.003Z,14.63
2018-07-15T03:07:10.130Z,14.73
2018-07-15T03:09:38.350Z,15.40
2018-07-15T03:12:06.462Z,15.50
2018-07-15T03:14:34.582Z,15.33
2018-07-15T03:17:02.703Z,16.57
2018-07-15T03:19:30.815Z,15.30
2018-07-15T03:21:58.932Z,15.17
2018-07-15T03:24:27.030Z,15.00
2018-07-15T03:26:55.151Z,16.17
2018-07-15T03:29:23.395Z,14.90
2018-07-15T03:31:51.506Z,15.63
2018-07-15T03:34:19.616Z,15.77
2018-07-15T03:36:47.714Z,15.23
2018-07-15T03:39:16.071Z,15.07
2018-07-15T03:41:44.191Z,15.40
2018-07-15T03:44:12.295Z,15.60
2018-07-15T03:46:40.419Z,14.70
2018-07-15T03:49:08.525Z,15.40
2018-07-15T03:51:36.638Z,17.40
2018-07-15T03:54:04.756Z,15.47
2018-07-15T03:56:32.866Z,15.47
2018-07-15T03:59:00.974Z,15.57
2018-07-15T04:01:29.085Z,15.00
2018-07-15T04:03:57.182Z,16.20
2018-07-15T04:06:25.302Z,14.60
2018-07-15T04:08:53.428Z,15.07
2018-07-15T04:11:21.507Z,16.33
2018-07-15T04:13:49.377Z,15.77
2018-07-15T04:16:17.519Z,15.60
2018-07-15T04:18:45.626Z,14.70
2018-07-15T04:21:13.779Z,15.17
2018-07-15T04:23:41.889Z,14.97
2018-07-15T04:26:10.020Z,16.17
2018-07-15T04:28:38.165Z,14.60
2018-07-15T04:31:06.381Z,14.80
2018-07-15T04:33:34.550Z,15.47
2018-07-15T04:36:02.717Z,15.40
2018-07-15T04:38:30.822Z,15.23
2018-07-15T04:40:58.710Z,14.33
2018-07-15T04:43:26.868Z,16.10
2018-07-15T04:45:54.955Z,15.53
2018-07-15T04:48:23.115Z,15.00
2018-07-15T04:50:51.229Z,15.90
2018-07-15T04:53:19.357Z,16.00
2018-07-15T04:55:47.479Z,15.40
2018-07-15T04:58:15.691Z,15.60
2018-07-15T05:00:43.842Z,15.10
2018-07-15T05:03:11.949Z,14.80
2018-07-15T05:05:40.070Z,16.50
2018-07-15T05:08:08.195Z,15.70
2018-07-15T05:10:36.335Z,15.53
2018-07-15T05:13:04.475Z,15.80
2018-07-15T05:15:32.669Z,15.43
2018-07-15T05:18:00.782Z,15.57
2018-07-15T05:20:28.947Z,14.63
2018-07-15T05:22:57.054Z,15.27
2018-07-15T05:25:25.267Z,16.37
2018-07-15T05:27:53.419Z,14.70
2018-07-15T05:30:22.033Z,13.93
2018-07-15T05:32:50.139Z,14.17
2018-07-15T05:35:18.267Z,15.93
2018-07-15T05:37:46.374Z,14.50
2018-07-15T05:40:14.506Z,13.47
2018-07-15T05:42:43.014Z,14.33
2018-07-15T05:45:11.165Z,14.70
2018-07-15T05:47:39.291Z,13.40
2018-07-15T05:50:07.390Z,14.30
2018-07-15T05:52:35.647Z,13.23
2018-07-15T05:55:03.763Z,12.87
2018-07-15T05:57:31.985Z,12.17
2018-07-15T06:00:00.101Z,13.40
2018-07-15T06:02:28.251Z,13.13
2018-07-15T06:04:56.565Z,12.47
2018-07-15T06:07:24.677Z,12.40
2018-07-15T06:09:52.592Z,12.87
2018-07-15T06:12:20.762Z,12.50
2018-07-15T06:14:48.898Z,13.30
2018-07-15T06:17:17.054Z,12.17
2018-07-15T06:19:45.173Z,12.87
2018-07-15T06:22:13.317Z,12.10
2018-07-15T06:24:41.427Z,11.50
2018-07-15T06:27:09.753Z,12.57
2018-07-15T06:29:37.893Z,10.63
2018-07-15T06:32:06.292Z,11.33
2018-07-15T06:34:34.444Z,11.20
2018-07-15T06:37:02.941Z,11.30
2018-07-15T06:39:31.119Z,12.17
2018-07-15T06:41:59.391Z,11.00
2018-07-15T06:44:27.503Z,12.47
2018-07-15T06:46:55.616Z,10.73
2018-07-15T06:49:23.837Z,11.63
2018-07-15T06:51:51.918Z,11.10
2018-07-15T06:54:20.088Z,11.13
2018-07-15T06:56:48.195Z,10.60
2018-07-15T06:59:16.301Z,11.00
2018-07-15T07:01:44.409Z,11.70
2018-07-15T07:04:12.521Z,11.13
2018-07-15T07:06:42.934Z,11.00
2018-07-15T07:09:11.034Z,11.37
2018-07-15T07:11:39.156Z,11.40
2018-07-15T07:14:07.607Z,10.80
2018-07-15T07:16:35.847Z,10.80
2018-07-15T07:19:04.272Z,10.70
2018-07-15T07:21:32.410Z,10.60
2018-07-15T07:24:00.517Z,11.00
2018-07-15T07:26:28.457Z,10.57
2018-07-15T07:28:56.657Z,11.53
2018-07-15T07:31:24.740Z,10.67
2018-07-15T07:33:52.891Z,10.70
2018-07-15T07:36:20.992Z,9.90
2018-07-15T07:38:49.187Z,10.20
2018-07-15T07:41:17.270Z,10.80
2018-07-15T07:43:45.370Z,10.60
2018-07-15T07:46:13.475Z,10.80
2018-07-15T07:48:41.630Z,11.40
2018-07-15T07:51:09.735Z,11.40
2018-07-15T07:53:37.858Z,10.90
2018-07-15T07:56:05.962Z,10.63
2018-07-15T07:58:34.703Z,10.60
2018-07-15T08:01:02.891Z,9.83
2018-07-15T08:03:30.995Z,10.40
2018-07-15T08:05:59.099Z,10.20
2018-07-15T08:08:27.326Z,10.60
2018-07-15T08:10:55.450Z,10.43
2018-07-15T08:13:23.661Z,10.53
2018-07-15T08:15:52.069Z,9.70
2018-07-15T08:18:20.325Z,10.53
2018-07-15T08:20:48.446Z,11.40
2018-07-15T08:23:16.574Z,11.13
2018-07-15T08:25:45.012Z,11.03
2018-07-15T08:28:13.831Z,10.00
2018-07-15T08:30:53.326Z,9.83
2018-07-15T08:33:21.726Z,9.43
2018-07-15T08:35:50.117Z,10.03
2018-07-15T08:38:18.311Z,9.10
2018-07-15T08:40:46.518Z,9.30
2018-07-15T08:43:14.535Z,8.20
2018-07-15T08:45:42.848Z,8.80
2018-07-15T08:48:11.023Z,7.90
2018-07-15T08:50:39.129Z,8.23
2018-07-15T08:53:07.238Z,8.10
2018-07-15T08:55:35.358Z,8.13
2018-07-15T08:58:03.552Z,8.53
2018-07-15T09:00:31.654Z,8.77
2018-07-15T09:02:59.769Z,9.30
2018-07-15T09:05:27.919Z,9.00
2018-07-15T09:07:56.035Z,10.10
2018-07-15T09:10:24.207Z,9.70
2018-07-15T09:12:52.128Z,9.30
2018-07-15T09:15:20.238Z,9.30
2018-07-15T09:17:48.352Z,10.10
2018-07-15T09:20:16.568Z,10.03
2018-07-15T09:22:44.686Z,10.33
2018-07-15T09:25:12.823Z,9.60
2018-07-15T09:27:40.956Z,10.10
2018-07-15T09:30:09.159Z,10.10
2018-07-15T09:32:37.275Z,9.30
2018-07-15T09:35:06.555Z,9.73
2018-07-15T09:37:34.721Z,10.00
2018-07-15T09:40:02.819Z,9.57
2018-07-15T09:42:30.943Z,9.83
2018-07-15T09:44:59.169Z,10.10
2018-07-15T09:47:27.266Z,9.20
2018-07-15T09:49:55.378Z,9.00
2018-07-15T09:52:23.487Z,9.57
2018-07-15T09:54:51.627Z,8.30
2018-07-15T09:57:19.750Z,9.03
2018-07-15T09:59:47.882Z,9.93
2018-07-15T10:02:16.009Z,9.43
2018-07-15T10:04:44.749Z,8.93
2018-07-15T10:07:12.775Z,8.63
2018-07-15T10:09:40.949Z,8.73
2018-07-15T10:12:09.107Z,9.30
2018-07-15T10:14:37.205Z,8.70
2018-07-15T10:17:05.486Z,9.67
2018-07-15T10:19:33.602Z,8.97
2018-07-15T10:22:01.762Z,8.80
2018-07-15T10:24:29.641Z,8.70
2018-07-15T10:26:57.745Z,8.83
2018-07-15T10:29:25.927Z,9.17
2018-07-15T10:31:54.048Z,8.10
2018-07-15T10:34:21.934Z,9.03
2018-07-15T10:36:50.043Z,7.80
2018-07-15T10:39:18.142Z,8.70
2018-07-15T10:41:46.291Z,8.50
2018-07-15T10:44:14.457Z,8.37
2018-07-15T10:46:42.556Z,8.57
2018-07-15T10:49:10.653Z,8.20
2018-07-15T10:51:38.755Z,7.50
2018-07-15T10:54:06.940Z,7.80
2018-07-15T10:56:35.051Z,6.80
2018-07-15T10:59:03.142Z,7.97
2018-07-15T11:01:31.374Z,8.63
2018-07-15T11:04:02.627Z,7.60
2018-07-15T11:06:30.798Z,7.27
2018-07-15T11:08:58.889Z,8.23
2018-07-15T11:11:27.011Z,8.33
2018-07-15T11:13:55.348Z,7.27
2018-07-15T11:16:27.698Z,7.60
2018-07-15T11:18:55.556Z,7.17
2018-07-15T11:21:23.758Z,7.80
2018-07-15T11:23:51.895Z,7.50
2018-07-15T11:26:22.226Z,7.23
2018-07-15T11:28:50.321Z,7.10
2018-07-15T11:31:18.470Z,7.97
2018-07-15T11:33:46.645Z,8.30
2018-07-15T11:36:14.819Z,8.50
2018-07-15T11:38:42.996Z,8.70
2018-07-15T11:41:11.170Z,8.47
2018-07-15T11:43:39.325Z,8.83
2018-07-15T11:46:07.518Z,9.10
2018-07-15T11:48:35.623Z,8.57
2018-07-15T11:51:03.598Z,9.00
2018-07-15T11:53:31.638Z,8.77
2018-07-15T11:55:59.875Z,8.37
2018-07-15T11:58:30.235Z,8.63
2018-07-15T12:00:58.409Z,8.90
2018-07-15T12:03:26.571Z,8.00
2018-07-15T12:05:54.687Z,8.60
2018-07-15T12:08:22.805Z,8.70
2018-07-15T12:10:52.676Z,8.63
2018-07-15T12:13:20.854Z,9.00
2018-07-15T12:15:48.975Z,8.57
2018-07-15T12:18:17.090Z,10.20
2018-07-15T12:20:45.220Z,9.83
2018-07-15T12:23:13.346Z,9.80
2018-07-15T12:25:41.680Z,9.00
2018-07-15T12:28:09.887Z,11.40
2018-07-15T12:30:38.022Z,10.67
2018-07-15T12:33:06.145Z,10.47
2018-07-15T12:35:34.251Z,11.47
2018-07-15T12:38:02.371Z,10.43
2018-07-15T12:40:30.534Z,10.57
2018-07-15T12:42:59.823Z,11.60
2018-07-15T12:45:28.671Z,11.80
2018-07-15T12:47:56.805Z,12.20
2018-07-15T12:50:24.928Z,10.53
2018-07-15T12:52:53.047Z,10.07
2018-07-15T12:55:21.166Z,10.33
2018-07-15T12:57:49.471Z,10.60
2018-07-15T13:00:17.577Z,8.90
2018-07-15T13:02:45.739Z,9.20
2018-07-15T13:05:13.842Z,7.80
2018-07-15T13:07:41.946Z,7.43
2018-07-15T13:10:10.047Z,6.63
2018-07-15T13:12:38.154Z,6.60
2018-07-15T13:15:06.253Z,6.93
2018-07-15T13:17:34.375Z,6.80
2018-07-15T13:20:02.479Z,7.60
2018-07-15T13:22:31.107Z,6.60
2018-07-15T13:24:59.406Z,6.90
2018-07-15T13:27:27.536Z,7.27
2018-07-15T13:29:55.775Z,7.90
2018-07-15T13:32:25.735Z,8.47
2018-07-15T13:34:54.008Z,7.17
2018-07-15T13:37:22.131Z,6.60
2018-07-15T13:39:50.274Z,7.13
2018-07-15T13:42:18.495Z,8.07
2018-07-15T13:44:46.614Z,7.23
2018-07-15T13:47:14.723Z,7.30
2018-07-15T13:49:42.857Z,6.93
2018-07-15T13:52:11.902Z,6.10
2018-07-15T13:54:40.002Z,6.80
2018-07-15T13:57:08.113Z,7.03
2018-07-15T13:59:36.286Z,7.50
2018-07-15T14:02:04.471Z,7.53
2018-07-15T14:04:32.574Z,6.50
2018-07-15T14:07:00.437Z,6.63
2018-07-15T14:09:28.559Z,6.20
2018-07-15T14:11:56.667Z,6.40
2018-07-15T14:16:57.603Z,6.27
2018-07-15T14:19:25.721Z,6.30
2018-07-15T14:21:53.675Z,6.57
2018-07-15T14:24:21.630Z,5.60
2018-07-15T14:26:49.747Z,5.83
2018-07-15T14:29:17.950Z,6.80
2018-07-15T14:31:46.150Z,5.50
2018-07-15T14:34:14.286Z,6.00
2018-07-15T14:36:42.382Z,5.60
2018-07-15T14:39:10.509Z,5.57
2018-07-15T14:41:38.630Z,5.70
2018-07-15T14:44:06.831Z,6.40
2018-07-15T14:46:34.986Z,5.87
2018-07-15T14:49:03.566Z,5.70
2018-07-15T14:51:31.665Z,6.90
2018-07-15T14:53:59.542Z,6.50
2018-07-15T14:56:27.782Z,6.60
2018-07-15T14:58:55.967Z,6.00
2018-07-15T15:01:24.098Z,8.43
2018-07-15T15:03:52.471Z,13.00
2018-07-15T15:06:20.596Z,257.57
2018-07-15T15:08:48.710Z,583.10
2018-07-15T15:11:16.847Z,277.97
2018-07-15T15:13:44.986Z,204.80
2018-07-15T15:16:13.112Z,35.47
2018-07-15T15:18:42.187Z,43.10
2018-07-15T15:21:10.282Z,28.10
2018-07-15T15:23:38.436Z,8.17
2018-07-15T15:26:06.535Z,21.37
2018-07-15T15:28:34.646Z,7.50
2018-07-15T15:31:03.050Z,9.10
2018-07-15T15:33:31.243Z,13.80
2018-07-15T15:35:59.363Z,5.70
2018-07-15T15:38:27.786Z,5.10
2018-07-15T15:40:56.004Z,4.93
2018-07-15T15:43:24.218Z,4.60
2018-07-15T15:45:52.327Z,4.90
2018-07-15T15:48:20.423Z,5.13
2018-07-15T15:50:48.521Z,5.20
2018-07-15T15:53:16.631Z,5.27
2018-07-15T15:55:44.725Z,8.50
2018-07-15T15:58:12.938Z,11.20
2018-07-15T16:00:41.013Z,11.40
2018-07-15T16:03:09.115Z,17.00
2018-07-15T16:05:37.379Z,14.60
2018-07-15T16:08:06.159Z,11.20
2018-07-15T16:10:34.308Z,6.73
2018-07-15T16:13:05.825Z,5.00
2018-07-15T16:15:34.112Z,3.83
2018-07-15T16:18:02.199Z,3.80
2018-07-15T16:20:30.309Z,3.43
2018-07-15T16:22:58.415Z,3.47
2018-07-15T16:25:26.527Z,3.27
2018-07-15T16:27:54.716Z,3.27
2018-07-15T16:30:22.890Z,3.30
2018-07-15T16:32:51.053Z,3.10
2018-07-15T16:35:19.373Z,3.30
2018-07-15T16:37:47.515Z,3.17
2018-07-15T16:40:15.802Z,3.00
2018-07-15T16:42:43.909Z,2.90
2018-07-15T16:45:12.016Z,3.77
2018-07-15T16:47:40.243Z,3.50
2018-07-15T16:50:08.358Z,3.83
2018-07-15T16:52:37.387Z,3.40
2018-07-15T16:55:05.672Z,3.57
2018-07-15T16:57:33.975Z,3.90
2018-07-15T17:00:03.170Z,4.37
2018-07-15T17:02:31.303Z,4.73
2018-07-15T17:04:59.398Z,4.70
2018-07-15T17:07:27.487Z,4.40
2018-07-15T17:09:55.649Z,4.77
2018-07-15T17:12:23.517Z,4.93
2018-07-15T17:14:51.639Z,4.23
2018-07-15T17:17:19.739Z,5.13
2018-07-15T17:19:47.856Z,4.40
2018-07-15T17:22:15.727Z,3.83
2018-07-15T17:24:43.868Z,3.40
2018-07-15T17:27:11.963Z,3.57
2018-07-15T17:29:40.078Z,4.13
2018-07-15T17:32:08.208Z,3.63
2018-07-15T17:34:36.318Z,3.70
2018-07-15T17:37:04.418Z,3.83
2018-07-15T17:39:32.784Z,3.00
2018-07-15T17:42:00.950Z,3.83
2018-07-15T17:44:29.054Z,4.10
2018-07-15T17:46:57.165Z,4.20
2018-07-15T17:49:25.258Z,4.20
2018-07-15T17:51:53.451Z,3.27
2018-07-15T17:54:21.578Z,3.10
2018-07-15T17:56:49.696Z,3.10
2018-07-15T17:59:17.785Z,3.13
2018-07-15T18:01:45.890Z,3.00
2018-07-15T18:04:13.990Z,2.63
2018-07-15T18:06:42.098Z,3.30
2018-07-15T18:09:10.323Z,3.13
2018-07-15T18:11:38.443Z,3.27
2018-07-15T18:14:06.598Z,2.80
2018-07-15T18:16:34.702Z,3.53
2018-07-15T18:19:02.795Z,3.30
2018-07-15T18:21:30.760Z,2.77
2018-07-15T18:23:58.863Z,3.17
2018-07-15T18:26:27.231Z,3.17
2018-07-15T18:28:55.399Z,3.20
2018-07-15T18:31:23.634Z,2.87
2018-07-15T18:33:51.759Z,3.47
2018-07-15T18:36:19.883Z,3.40
2018-07-15T18:38:47.974Z,3.77
2018-07-15T18:41:16.191Z,3.60
2018-07-15T18:43:44.295Z,3.60
2018-07-15T18:46:12.398Z,3.50
2018-07-15T18:48:40.530Z,3.80
2018-07-15T18:51:08.744Z,3.70
2018-07-15T18:53:37.259Z,4.30
2018-07-15T18:56:05.377Z,4.53
2018-07-15T18:58:33.567Z,4.33
2018-07-15T19:01:01.717Z,4.07
2018-07-15T19:03:29.813Z,4.83
2018-07-15T19:05:57.979Z,3.93
2018-07-15T19:08:26.126Z,3.40
2018-07-15T19:10:54.315Z,4.33
2018-07-15T19:13:22.416Z,3.80
2018-07-15T19:15:50.551Z,4.20
2018-07-15T19:18:18.802Z,4.20
2018-07-15T19:20:46.854Z,4.00
2018-07-15T19:23:15.058Z,3.87
2018-07-15T19:25:43.272Z,4.27
2018-07-15T19:28:11.423Z,3.73
2018-07-15T19:30:39.705Z,3.70
2018-07-15T19:33:07.975Z,4.30
2018-07-15T19:35:36.151Z,4.20
2018-07-15T19:38:04.263Z,4.40
2018-07-15T19:40:32.306Z,3.90
2018-07-15T19:43:00.402Z,4.40
2018-07-15T19:45:28.565Z,3.87
2018-07-15T19:47:56.673Z,4.00
2018-07-15T19:50:26.944Z,5.00
2018-07-15T19:52:55.101Z,4.83
2018-07-15T19:55:23.248Z,4.80
2018-07-15T19:57:51.460Z,5.77
2018-07-15T20:00:19.627Z,4.97
2018-07-15T20:02:47.828Z,4.80
2018-07-15T20:05:16.011Z,5.00
2018-07-15T20:07:44.163Z,4.33
2018-07-15T20:10:12.315Z,4.20
2018-07-15T20:12:40.438Z,4.80
2018-07-15T20:15:08.561Z,4.70
2018-07-15T20:17:36.691Z,4.93
2018-07-15T20:20:04.794Z,4.80
2018-07-15T20:22:33.004Z,4.20
2018-07-15T20:25:01.083Z,4.50
2018-07-15T20:27:29.247Z,4.30
2018-07-15T20:29:57.397Z,4.80
2018-07-15T20:32:25.535Z,5.30
2018-07-15T20:34:53.650Z,4.60
2018-07-15T20:37:21.841Z,5.10
2018-07-15T20:39:50.052Z,4.80
2018-07-15T20:42:18.098Z,5.67
2018-07-15T20:44:46.230Z,4.60
2018-07-15T20:47:14.366Z,5.50
2018-07-15T20:49:42.574Z,4.60
2018-07-15T20:52:10.757Z,4.80
2018-07-15T20:54:38.994Z,4.50
2018-07-15T20:57:07.102Z,5.13
2018-07-15T20:59:35.304Z,4.30
2018-07-15T21:02:03.478Z,4.80
2018-07-15T21:04:31.643Z,5.77
2018-07-15T21:06:59.864Z,5.13
2018-07-15T21:09:27.993Z,5.30
2018-07-15T21:11:56.567Z,5.43
2018-07-15T21:14:24.743Z,4.60
2018-07-15T21:16:52.858Z,5.07
2018-07-15T21:19:20.830Z,4.67
2018-07-15T21:21:48.715Z,4.70
2018-07-15T21:24:16.830Z,4.87
2018-07-15T21:26:44.982Z,4.70
2018-07-15T21:29:13.079Z,5.53
2018-07-15T21:31:41.279Z,5.10
2018-07-15T21:34:09.672Z,4.40
2018-07-15T21:36:38.544Z,5.00
2018-07-15T21:39:07.530Z,4.53
2018-07-15T21:41:35.728Z,5.30
2018-07-15T21:44:03.944Z,4.77
2018-07-15T21:46:34.052Z,4.73
2018-07-15T21:49:02.381Z,4.97
2018-07-15T21:51:30.531Z,4.80
2018-07-15T21:53:58.751Z,5.50
2018-07-15T21:56:26.881Z,4.10
2018-07-15T21:58:55.087Z,4.00
2018-07-15T22:01:33.139Z,4.80
2018-07-15T22:04:01.280Z,5.03
2018-07-15T22:06:41.120Z,5.23
2018-07-15T22:09:14.535Z,5.20
2018-07-15T22:11:42.646Z,4.97
2018-07-15T22:14:10.754Z,4.80
2018-07-15T22:16:38.979Z,4.87
2018-07-15T22:19:07.106Z,4.17
2018-07-15T22:21:42.011Z,4.93
2018-07-15T22:24:10.123Z,5.10
2018-07-15T22:26:38.049Z,4.57
2018-07-15T22:29:06.209Z,4.83
2018-07-15T22:31:34.381Z,4.77
2018-07-15T22:34:02.490Z,5.00
2018-07-15T22:36:30.590Z,4.77
2018-07-15T22:38:58.522Z,5.27
2018-07-15T22:41:26.640Z,4.97
2018-07-15T22:43:54.747Z,4.43
2018-07-15T22:46:22.856Z,5.53
2018-07-15T22:48:50.974Z,5.00
2018-07-15T22:51:19.153Z,4.73
2018-07-15T22:53:47.281Z,5.70
2018-07-15T22:56:15.406Z,5.13
2018-07-15T22:58:43.562Z,5.10
2018-07-15T23:01:11.649Z,4.83
2018-07-15T23:03:39.831Z,4.87
2018-07-15T23:06:18.664Z,5.53
2018-07-15T23:08:46.854Z,5.20
2018-07-15T23:11:15.126Z,4.90
2018-07-15T23:13:43.363Z,5.10
2018-07-15T23:16:11.430Z,5.10
2018-07-15T23:18:39.608Z,4.80
2018-07-15T23:21:07.734Z,5.43
2018-07-15T23:23:35.865Z,5.00
2018-07-15T23:26:04.031Z,4.30
2018-07-15T23:28:32.123Z,5.77
2018-07-15T23:31:00.262Z,5.33
2018-07-15T23:33:28.373Z,6.50
2018-07-15T23:35:56.477Z,6.00
2018-07-15T23:38:24.620Z,5.73
2018-07-15T23:40:52.710Z,5.17
2018-07-15T23:43:21.923Z,6.50
2018-07-15T23:45:50.010Z,5.10
2018-07-15T23:48:18.161Z,5.40
2018-07-15T23:50:46.258Z,5.60
2018-07-15T23:53:14.517Z,5.50
2018-07-15T23:55:42.701Z,5.40
2018-07-15T23:58:10.826Z,4.90
